CPA767 VHHH-VVTS
Flight info
| Callsign | CPA767 |
|---|---|
| Flight time | N/A |
| Altitude | 36000 |
| Route | PECAN V12 EPDOS L642 EPKAL L642 SOSPA W15 VETOM |
| Aircraft | A333/H-SDE3GHIJ2J3J5M1RVWXY/LB2D1 |
Departure
| Time | 2026-05-05 04:44 |
|---|---|
| Airport | Hong Kong International Airport (VHHH) |
Arrival
| Time | N/A |
|---|---|
| Airport | Tan Son Nhat International Airport (VVTS) |
| Time | Latitude | Longitude | Altitude | Speed | Heading |
|---|---|---|---|---|---|
| 2026-05-05 04:18 | 22.31351 | 113.93134 | 36 ft | 0 kts | 341° |
| 2026-05-05 04:29 | 22.31346 | 113.93136 | 36 ft | 2 kts | 341° |
| 2026-05-05 04:30 | 22.31330 | 113.93141 | 33 ft | 2 kts | 341° |
| 2026-05-05 04:30 | 22.31315 | 113.93147 | 34 ft | 2 kts | 341° |
| 2026-05-05 04:30 | 22.31300 | 113.93152 | 33 ft | 2 kts | 341° |
| 2026-05-05 04:30 | 22.31285 | 113.93159 | 33 ft | 2 kts | 317° |
| 2026-05-05 04:31 | 22.31275 | 113.93172 | 33 ft | 2 kts | 288° |
| 2026-05-05 04:31 | 22.31273 | 113.93190 | 32 ft | 2 kts | 265° |
| 2026-05-05 04:31 | 22.31275 | 113.93207 | 33 ft | 2 kts | 253° |
| 2026-05-05 04:31 | 22.31276 | 113.93208 | 33 ft | 0 kts | 253° |
| 2026-05-05 04:32 | 22.31275 | 113.93205 | 33 ft | 1 kts | 252° |
| 2026-05-05 04:33 | 22.31271 | 113.93193 | 32 ft | 2 kts | 252° |
| 2026-05-05 04:33 | 22.31265 | 113.93173 | 36 ft | 4 kts | 250° |
| 2026-05-05 04:33 | 22.31250 | 113.93128 | 33 ft | 8 kts | 250° |
| 2026-05-05 04:33 | 22.31230 | 113.93065 | 36 ft | 10 kts | 250° |
| 2026-05-05 04:34 | 22.31206 | 113.92994 | 36 ft | 11 kts | 250° |
| 2026-05-05 04:34 | 22.31178 | 113.92915 | 36 ft | 11 kts | 243° |
| 2026-05-05 04:34 | 22.31116 | 113.92863 | 36 ft | 12 kts | 206° |
| 2026-05-05 04:34 | 22.31040 | 113.92822 | 36 ft | 12 kts | 206° |
| 2026-05-05 04:35 | 22.30960 | 113.92781 | 36 ft | 13 kts | 206° |
| 2026-05-05 04:35 | 22.30877 | 113.92738 | 36 ft | 12 kts | 206° |
| 2026-05-05 04:35 | 22.30828 | 113.92685 | 36 ft | 10 kts | 244° |
| 2026-05-05 04:35 | 22.30804 | 113.92610 | 36 ft | 11 kts | 251° |
| 2026-05-05 04:36 | 22.30778 | 113.92528 | 36 ft | 12 kts | 250° |
| 2026-05-05 04:36 | 22.30746 | 113.92430 | 36 ft | 16 kts | 251° |
| 2026-05-05 04:36 | 22.30709 | 113.92316 | 36 ft | 16 kts | 251° |
| 2026-05-05 04:36 | 22.30671 | 113.92197 | 36 ft | 17 kts | 251° |
| 2026-05-05 04:37 | 22.30631 | 113.92073 | 36 ft | 18 kts | 251° |
| 2026-05-05 04:37 | 22.30590 | 113.91943 | 36 ft | 19 kts | 251° |
| 2026-05-05 04:37 | 22.30547 | 113.91809 | 36 ft | 19 kts | 251° |
| 2026-05-05 04:37 | 22.30502 | 113.91670 | 36 ft | 20 kts | 250° |
| 2026-05-05 04:38 | 22.30455 | 113.91528 | 36 ft | 20 kts | 250° |
| 2026-05-05 04:38 | 22.30414 | 113.91398 | 36 ft | 15 kts | 251° |
| 2026-05-05 04:38 | 22.30378 | 113.91289 | 36 ft | 16 kts | 251° |
| 2026-05-05 04:38 | 22.30341 | 113.91174 | 36 ft | 17 kts | 251° |
| 2026-05-05 04:39 | 22.30302 | 113.91053 | 36 ft | 17 kts | 251° |
| 2026-05-05 04:39 | 22.30270 | 113.90953 | 36 ft | 12 kts | 251° |
| 2026-05-05 04:39 | 22.30240 | 113.90861 | 36 ft | 13 kts | 251° |
| 2026-05-05 04:39 | 22.30209 | 113.90763 | 36 ft | 14 kts | 251° |
| 2026-05-05 04:40 | 22.30175 | 113.90658 | 36 ft | 15 kts | 251° |
| 2026-05-05 04:40 | 22.30139 | 113.90547 | 36 ft | 16 kts | 251° |
| 2026-05-05 04:40 | 22.30103 | 113.90436 | 36 ft | 15 kts | 250° |
| 2026-05-05 04:40 | 22.30067 | 113.90324 | 36 ft | 16 kts | 251° |
| 2026-05-05 04:41 | 22.30029 | 113.90206 | 36 ft | 17 kts | 251° |
| 2026-05-05 04:41 | 22.29990 | 113.90086 | 36 ft | 18 kts | 251° |
| 2026-05-05 04:41 | 22.29949 | 113.89959 | 36 ft | 18 kts | 251° |
| 2026-05-05 04:41 | 22.29908 | 113.89828 | 36 ft | 18 kts | 251° |
| 2026-05-05 04:42 | 22.29868 | 113.89740 | 36 ft | 12 kts | 219° |
| 2026-05-05 04:42 | 22.29795 | 113.89745 | 36 ft | 11 kts | 163° |
| 2026-05-05 04:42 | 22.29720 | 113.89773 | 36 ft | 12 kts | 160° |
| 2026-05-05 04:42 | 22.29644 | 113.89824 | 33 ft | 13 kts | 117° |
| 2026-05-05 04:43 | 22.29656 | 113.89915 | 34 ft | 13 kts | 71° |
| 2026-05-05 04:43 | 22.29729 | 113.90141 | 34 ft | 58 kts | 70° |
| 2026-05-05 04:43 | 22.29923 | 113.90745 | 35 ft | 111 kts | 71° |
| 2026-05-05 04:43 | 22.30226 | 113.91685 | 39 ft | 156 kts | 71° |
| 2026-05-05 04:44 | 22.30595 | 113.92834 | 532 ft | 163 kts | 71° |
| 2026-05-05 04:44 | 22.30972 | 113.93987 | 1260 ft | 162 kts | 71° |
| 2026-05-05 04:44 | 22.31354 | 113.95142 | 1913 ft | 165 kts | 72° |
| 2026-05-05 04:44 | 22.31743 | 113.96334 | 2428 ft | 171 kts | 73° |
| 2026-05-05 04:45 | 22.32133 | 113.97561 | 2881 ft | 176 kts | 72° |
| 2026-05-05 04:45 | 22.32546 | 113.98859 | 3285 ft | 191 kts | 71° |
| 2026-05-05 04:45 | 22.33009 | 114.00308 | 3492 ft | 218 kts | 71° |
| 2026-05-05 04:45 | 22.33519 | 114.01932 | 3760 ft | 241 kts | 74° |
| 2026-05-05 04:46 | 22.33788 | 114.03732 | 4320 ft | 250 kts | 92° |
| 2026-05-05 04:46 | 22.33454 | 114.05572 | 5009 ft | 252 kts | 115° |
| 2026-05-05 04:46 | 22.32481 | 114.07135 | 5697 ft | 251 kts | 138° |
| 2026-05-05 04:46 | 22.31057 | 114.08207 | 6431 ft | 248 kts | 158° |
| 2026-05-05 04:47 | 22.29414 | 114.08728 | 7097 ft | 248 kts | 175° |
| 2026-05-05 04:47 | 22.27667 | 114.08810 | 7668 ft | 257 kts | 182° |
| 2026-05-05 04:47 | 22.25828 | 114.08773 | 8099 ft | 271 kts | 184° |
| 2026-05-05 04:47 | 22.23942 | 114.08727 | 8840 ft | 276 kts | 184° |
| 2026-05-05 04:48 | 22.22015 | 114.08691 | 9648 ft | 280 kts | 184° |
| 2026-05-05 04:48 | 22.20034 | 114.08662 | 10277 ft | 289 kts | 184° |
| 2026-05-05 04:48 | 22.17960 | 114.08801 | 10556 ft | 311 kts | 171° |
| 2026-05-05 04:48 | 22.15920 | 114.09806 | 10796 ft | 338 kts | 144° |
| 2026-05-05 04:49 | 22.14819 | 114.11049 | 10944 ft | 355 kts | 127° |
| 2026-05-05 04:49 | 22.13221 | 114.14236 | 11574 ft | 370 kts | 118° |
| 2026-05-05 04:49 | 22.12098 | 114.16759 | 12296 ft | 376 kts | 118° |
| 2026-05-05 04:49 | 22.10871 | 114.19279 | 13022 ft | 382 kts | 126° |
| 2026-05-05 04:50 | 22.09203 | 114.21496 | 13699 ft | 380 kts | 141° |
| 2026-05-05 04:50 | 22.07786 | 114.22647 | 14095 ft | 376 kts | 154° |
| 2026-05-05 04:50 | 22.04534 | 114.23706 | 14792 ft | 368 kts | 182° |
| 2026-05-05 04:50 | 22.02827 | 114.23545 | 15156 ft | 363 kts | 196° |
| 2026-05-05 04:51 | 22.00414 | 114.22764 | 15712 ft | 363 kts | 202° |
| 2026-05-05 04:51 | 21.97260 | 114.21523 | 16454 ft | 366 kts | 204° |
| 2026-05-05 04:51 | 21.95668 | 114.20891 | 16903 ft | 368 kts | 204° |
| 2026-05-05 04:51 | 21.93260 | 114.19943 | 17515 ft | 371 kts | 204° |
| 2026-05-05 04:52 | 21.90820 | 114.18989 | 18052 ft | 374 kts | 204° |
| 2026-05-05 04:52 | 21.88358 | 114.18033 | 18517 ft | 377 kts | 204° |
| 2026-05-05 04:52 | 21.85872 | 114.17071 | 18923 ft | 381 kts | 203° |
| 2026-05-05 04:52 | 21.83362 | 114.16101 | 19313 ft | 384 kts | 204° |
| 2026-05-05 04:53 | 21.80831 | 114.15124 | 19721 ft | 387 kts | 204° |
| 2026-05-05 04:53 | 21.78283 | 114.14142 | 20140 ft | 390 kts | 204° |
| 2026-05-05 04:53 | 21.75745 | 114.13164 | 20536 ft | 393 kts | 204° |
| 2026-05-05 04:53 | 21.73126 | 114.12155 | 20946 ft | 396 kts | 204° |
| 2026-05-05 04:54 | 21.70531 | 114.11155 | 21349 ft | 398 kts | 204° |
| 2026-05-05 04:54 | 21.67911 | 114.10146 | 21740 ft | 401 kts | 204° |
| 2026-05-05 04:54 | 21.65298 | 114.09155 | 22129 ft | 405 kts | 202° |
| 2026-05-05 04:54 | 21.62569 | 114.08330 | 22505 ft | 410 kts | 199° |
| 2026-05-05 04:55 | 21.59785 | 114.07595 | 22876 ft | 413 kts | 199° |
| 2026-05-05 04:55 | 21.56973 | 114.06871 | 23234 ft | 416 kts | 199° |
| 2026-05-05 04:55 | 21.54148 | 114.06144 | 23601 ft | 419 kts | 199° |
| 2026-05-05 04:55 | 21.51300 | 114.05410 | 23925 ft | 421 kts | 199° |
| 2026-05-05 04:56 | 21.48443 | 114.04673 | 24239 ft | 423 kts | 199° |
| 2026-05-05 04:56 | 21.45568 | 114.03939 | 24555 ft | 426 kts | 198° |
| 2026-05-05 04:56 | 21.42628 | 114.03422 | 24871 ft | 432 kts | 192° |
| 2026-05-05 04:56 | 21.39614 | 114.03104 | 25185 ft | 436 kts | 190° |
| 2026-05-05 04:57 | 21.36578 | 114.02882 | 25504 ft | 439 kts | 189° |
| 2026-05-05 04:57 | 21.33518 | 114.02703 | 25818 ft | 441 kts | 188° |
| 2026-05-05 04:57 | 21.30446 | 114.02534 | 26132 ft | 443 kts | 188° |
| 2026-05-05 04:57 | 21.27398 | 114.02361 | 26398 ft | 445 kts | 188° |
| 2026-05-05 04:58 | 21.24295 | 114.02175 | 26669 ft | 448 kts | 188° |
| 2026-05-05 04:58 | 21.21175 | 114.01978 | 26963 ft | 450 kts | 188° |
| 2026-05-05 04:58 | 21.18038 | 114.01773 | 27274 ft | 452 kts | 188° |
| 2026-05-05 04:58 | 21.14889 | 114.01564 | 27569 ft | 454 kts | 188° |
| 2026-05-05 04:59 | 21.11730 | 114.01352 | 27886 ft | 457 kts | 188° |
| 2026-05-05 04:59 | 21.08548 | 114.01137 | 28212 ft | 459 kts | 188° |
| 2026-05-05 04:59 | 21.05348 | 114.00922 | 28542 ft | 461 kts | 188° |
| 2026-05-05 04:59 | 21.02145 | 114.00708 | 28854 ft | 463 kts | 188° |
| 2026-05-05 05:00 | 20.98927 | 114.00494 | 29116 ft | 465 kts | 188° |
| 2026-05-05 05:00 | 20.95682 | 114.00269 | 29405 ft | 466 kts | 190° |
| 2026-05-05 05:00 | 20.92489 | 113.99773 | 29668 ft | 465 kts | 195° |
| 2026-05-05 05:00 | 20.89303 | 113.99117 | 29948 ft | 466 kts | 196° |
| 2026-05-05 05:01 | 20.86127 | 113.98409 | 30163 ft | 467 kts | 197° |
| 2026-05-05 05:01 | 20.82942 | 113.97669 | 30385 ft | 469 kts | 197° |
| 2026-05-05 05:01 | 20.79744 | 113.96914 | 30613 ft | 471 kts | 197° |
| 2026-05-05 05:01 | 20.76578 | 113.96164 | 30828 ft | 472 kts | 197° |
| 2026-05-05 05:02 | 20.73361 | 113.95405 | 31051 ft | 474 kts | 197° |
| 2026-05-05 05:02 | 20.70127 | 113.94646 | 31273 ft | 476 kts | 197° |
| 2026-05-05 05:02 | 20.66891 | 113.93890 | 31482 ft | 477 kts | 196° |
| 2026-05-05 05:02 | 20.63654 | 113.93137 | 31788 ft | 476 kts | 196° |
| 2026-05-05 05:03 | 20.60407 | 113.92384 | 32102 ft | 475 kts | 196° |
| 2026-05-05 05:03 | 20.57183 | 113.91636 | 32423 ft | 474 kts | 196° |
| 2026-05-05 05:03 | 20.53961 | 113.90890 | 32728 ft | 474 kts | 196° |
| 2026-05-05 05:03 | 20.50738 | 113.90142 | 33054 ft | 473 kts | 196° |
| 2026-05-05 05:04 | 20.47525 | 113.89398 | 33378 ft | 473 kts | 196° |
| 2026-05-05 05:04 | 20.44309 | 113.88652 | 33673 ft | 472 kts | 196° |
| 2026-05-05 05:04 | 20.41095 | 113.87907 | 33962 ft | 472 kts | 197° |
| 2026-05-05 05:04 | 20.37898 | 113.87167 | 34214 ft | 471 kts | 197° |
| 2026-05-05 05:05 | 20.34693 | 113.86424 | 34453 ft | 471 kts | 197° |
| 2026-05-05 05:05 | 20.31495 | 113.85684 | 34690 ft | 470 kts | 197° |
| 2026-05-05 05:05 | 20.28278 | 113.84940 | 34927 ft | 470 kts | 197° |
| 2026-05-05 05:05 | 20.25123 | 113.84210 | 35139 ft | 470 kts | 197° |
| 2026-05-05 05:06 | 20.21881 | 113.83461 | 35379 ft | 470 kts | 197° |
| 2026-05-05 05:06 | 20.18734 | 113.82733 | 35598 ft | 470 kts | 197° |
| 2026-05-05 05:06 | 20.15544 | 113.81997 | 35820 ft | 469 kts | 197° |
| 2026-05-05 05:06 | 20.12350 | 113.81259 | 36037 ft | 469 kts | 197° |
| 2026-05-05 05:07 | 20.09157 | 113.80522 | 36236 ft | 469 kts | 196° |
| 2026-05-05 05:07 | 20.05978 | 113.79789 | 36453 ft | 468 kts | 196° |
| 2026-05-05 05:07 | 20.02787 | 113.79053 | 36654 ft | 468 kts | 196° |
| 2026-05-05 05:07 | 19.99604 | 113.78319 | 36849 ft | 468 kts | 197° |
| 2026-05-05 05:08 | 19.96416 | 113.77585 | 37044 ft | 468 kts | 197° |
| 2026-05-05 05:08 | 19.93231 | 113.76851 | 37240 ft | 468 kts | 197° |
| 2026-05-05 05:08 | 19.90049 | 113.76119 | 37424 ft | 468 kts | 197° |
| 2026-05-05 05:08 | 19.86868 | 113.75387 | 37615 ft | 468 kts | 197° |
| 2026-05-05 05:09 | 19.83678 | 113.74653 | 37788 ft | 468 kts | 197° |
| 2026-05-05 05:09 | 19.80501 | 113.73923 | 37922 ft | 469 kts | 197° |
| 2026-05-05 05:09 | 19.77305 | 113.73188 | 37952 ft | 469 kts | 196° |
| 2026-05-05 05:10 | 19.70930 | 113.71724 | 37950 ft | 468 kts | 196° |
| 2026-05-05 05:10 | 19.64601 | 113.70272 | 37953 ft | 468 kts | 196° |
| 2026-05-05 05:11 | 19.58234 | 113.68812 | 37952 ft | 468 kts | 196° |
| 2026-05-05 05:11 | 19.51863 | 113.67353 | 37949 ft | 468 kts | 196° |
| 2026-05-05 05:12 | 19.45499 | 113.65896 | 37951 ft | 467 kts | 196° |
| 2026-05-05 05:12 | 19.39146 | 113.64443 | 37949 ft | 467 kts | 196° |
| 2026-05-05 05:13 | 19.32792 | 113.62991 | 37947 ft | 467 kts | 196° |
| 2026-05-05 05:13 | 19.26444 | 113.61541 | 37947 ft | 467 kts | 196° |
| 2026-05-05 05:14 | 19.20090 | 113.60091 | 37947 ft | 467 kts | 196° |
| 2026-05-05 05:14 | 19.13776 | 113.58652 | 38140 ft | 467 kts | 197° |
| 2026-05-05 05:14 | 19.10602 | 113.57928 | 38329 ft | 466 kts | 197° |
| 2026-05-05 05:15 | 19.07432 | 113.57207 | 38501 ft | 466 kts | 197° |
| 2026-05-05 05:15 | 19.04267 | 113.56486 | 38660 ft | 466 kts | 197° |
| 2026-05-05 05:15 | 19.01091 | 113.55764 | 38794 ft | 466 kts | 196° |
| 2026-05-05 05:15 | 18.97905 | 113.55133 | 38926 ft | 467 kts | 193° |
| 2026-05-05 05:16 | 18.94689 | 113.54624 | 39060 ft | 468 kts | 192° |
| 2026-05-05 05:16 | 18.91460 | 113.54175 | 39187 ft | 468 kts | 191° |
| 2026-05-05 05:16 | 18.88228 | 113.53748 | 39304 ft | 468 kts | 191° |
| 2026-05-05 05:16 | 18.84995 | 113.53321 | 39447 ft | 467 kts | 191° |
| 2026-05-05 05:17 | 18.81775 | 113.52886 | 39581 ft | 466 kts | 192° |
| 2026-05-05 05:17 | 18.78565 | 113.52443 | 39704 ft | 465 kts | 192° |
| 2026-05-05 05:17 | 18.75350 | 113.51991 | 39823 ft | 465 kts | 192° |
| 2026-05-05 05:18 | 18.68965 | 113.51080 | 39936 ft | 467 kts | 192° |
| 2026-05-05 05:18 | 18.62510 | 113.50156 | 39933 ft | 467 kts | 192° |
| 2026-05-05 05:19 | 18.56229 | 113.48647 | 39934 ft | 458 kts | 206° |
| 2026-05-05 05:19 | 18.50732 | 113.45418 | 39933 ft | 449 kts | 218° |
| 2026-05-05 05:20 | 18.45684 | 113.41610 | 39930 ft | 449 kts | 220° |
| 2026-05-05 05:20 | 18.40673 | 113.37675 | 39930 ft | 450 kts | 220° |
| 2026-05-05 05:21 | 18.35645 | 113.33751 | 39933 ft | 450 kts | 220° |
| 2026-05-05 05:21 | 18.30593 | 113.29849 | 39933 ft | 450 kts | 220° |
| 2026-05-05 05:22 | 18.25532 | 113.25957 | 39930 ft | 450 kts | 220° |
| 2026-05-05 05:22 | 18.20467 | 113.22066 | 39933 ft | 450 kts | 220° |